Atlanta, Illinois
Current Conditions -  °F | °C
As of 6:15 PM on Friday 24 Oct 2014 (Local Time) from KAAA Reporting Station
Clear Clear  
Wind Chill: 61°   Ceiling: Unl
Heat Index: 61°   Visibility: 10mi
Dew Point: 54°   Wind: 5mph
Humidity: 77%   Direction: 180°S
Pressure: 29.97"   Gusts: NA
Location:  40.26°N, 89.23°W
Report Text: KAAA 242315Z AUTO 18004KT 10SM CLR 16/12 A2997 RMK AO2 T01600120
Loading
Personal Weather Stations






























Interactive Weather Map
Tropical Storm Tracking
New forecast layout! Learn more

10-Day Weather Forecast

Advertisements
Track Severe Weather on mobile